Time;durP1;ratioP1;P1;durP2;ratioP2;P2;SDS_P1;SDS_P2;PMS_P1;PMS_P2;Temp;Humidity;BMP_temperature;BMP_pressure;BME280_temperature;BME280_humidity;BME280_pressure;Samples;Min_cycle;Max_cycle;Signal;HPM_P1;HPM_P2
2024/01/31 00:01:09;;;;;;;9.10;3.50;;;;;;;12.96;46.13;98111.41;5054642;28;20036;-27
2024/01/31 00:03:35;;;;;;;6.78;3.92;;;;;;;12.91;46.26;98112.59;5057862;28;20045;-28
2024/01/31 00:06:02;;;;;;;7.53;4.13;;;;;;;13.07;46.08;98123.00;5056927;28;20078;-28
2024/01/31 00:08:27;;;;;;;6.90;4.53;;;;;;;13.06;46.31;98112.50;5057337;28;20029;-28
2024/01/31 00:10:53;;;;;;;8.88;3.95;;;;;;;12.82;46.45;98117.72;5057094;28;20047;-28
2024/01/31 00:13:18;;;;;;;7.75;4.07;;;;;;;12.83;46.76;98107.63;5057294;28;20028;-28
2024/01/31 00:15:44;;;;;;;7.15;4.22;;;;;;;12.85;46.39;98108.00;5057762;28;20013;-28
2024/01/31 00:18:09;;;;;;;6.55;3.95;;;;;;;12.84;46.13;98103.72;5057090;28;20381;-28
2024/01/31 00:20:35;;;;;;;9.15;4.88;;;;;;;12.84;46.28;98109.16;5057119;28;20013;-28
2024/01/31 00:23:00;;;;;;;7.97;4.75;;;;;;;12.86;46.26;98107.56;5056853;28;20518;-27
2024/01/31 00:25:26;;;;;;;7.40;4.50;;;;;;;12.82;46.17;98111.50;5056572;28;20131;-28
2024/01/31 00:27:52;;;;;;;7.32;4.68;;;;;;;12.86;46.10;98109.53;5057088;28;20029;-28
2024/01/31 00:30:18;;;;;;;8.10;4.15;;;;;;;12.78;46.48;98110.75;5057139;28;20020;-28
2024/01/31 00:32:43;;;;;;;7.28;3.72;;;;;;;12.79;46.58;98106.84;5063042;28;20024;-28
2024/01/31 00:35:08;;;;;;;6.38;3.92;;;;;;;12.91;46.44;98109.09;5057413;28;20025;-28
2024/01/31 00:37:34;;;;;;;7.47;4.63;;;;;;;12.87;47.20;98113.78;5056656;28;20017;-28
2024/01/31 00:39:59;;;;;;;8.10;4.70;;;;;;;12.68;47.62;98104.22;5056754;28;20029;-28
2024/01/31 00:42:25;;;;;;;7.97;4.82;;;;;;;12.92;47.12;98113.38;5056567;28;20020;-27
2024/01/31 00:44:50;;;;;;;6.95;4.60;;;;;;;12.89;47.11;98112.22;5056460;28;20072;-28
2024/01/31 00:47:16;;;;;;;8.20;4.57;;;;;;;12.96;46.82;98105.97;5056694;28;20029;-28
2024/01/31 00:49:41;;;;;;;8.93;4.40;;;;;;;12.83;47.36;98108.41;5056560;28;20045;-29
2024/01/31 00:52:07;;;;;;;8.07;4.53;;;;;;;12.80;47.39;98100.25;5056360;28;20017;-28
2024/01/31 00:54:32;;;;;;;6.28;4.20;;;;;;;12.79;47.75;98102.19;5056294;28;20031;-28
2024/01/31 00:56:58;;;;;;;6.57;4.75;;;;;;;12.86;47.28;98104.06;5056566;28;20017;-28
2024/01/31 00:59:23;;;;;;;8.55;4.40;;;;;;;12.70;47.65;98101.09;5056030;28;20025;-28
2024/01/31 01:01:49;;;;;;;7.10;4.15;;;;;;;12.64;47.92;98100.72;5059019;28;20052;-28
2024/01/31 01:04:14;;;;;;;6.30;4.00;;;;;;;12.84;47.64;98104.50;5060080;28;20043;-28
2024/01/31 01:06:40;;;;;;;6.45;4.15;;;;;;;12.66;48.32;98097.63;5056243;28;20132;-28
2024/01/31 01:09:06;;;;;;;7.75;4.63;;;;;;;12.70;48.16;98098.38;5055998;28;20058;-27
2024/01/31 01:11:31;;;;;;;6.80;4.38;;;;;;;12.62;48.44;98091.41;5055770;28;20013;-28
2024/01/31 01:13:57;;;;;;;7.65;4.38;;;;;;;12.76;48.31;98096.75;5053029;28;20024;-28
2024/01/31 01:16:22;;;;;;;7.30;4.47;;;;;;;12.84;47.90;98093.59;5055952;28;20024;-28
2024/01/31 01:18:48;;;;;;;9.82;4.60;;;;;;;12.93;47.54;98093.16;5056120;28;20419;-28
2024/01/31 01:21:13;;;;;;;8.45;4.68;;;;;;;12.56;48.16;98091.84;5056152;28;20024;-29
2024/01/31 01:23:39;;;;;;;9.05;4.68;;;;;;;12.70;47.79;98087.50;5055507;28;20024;-28
2024/01/31 01:26:04;;;;;;;9.05;4.70;;;;;;;12.93;47.00;98101.31;5055827;28;20021;-28
2024/01/31 01:28:30;;;;;;;5.93;4.13;;;;;;;12.80;47.80;98081.19;5055505;28;20017;-27
2024/01/31 01:30:55;;;;;;;5.80;3.45;;;;;;;12.80;47.46;98081.19;5056142;28;20075;-29
2024/01/31 01:33:21;;;;;;;5.55;3.85;;;;;;;12.59;47.91;98077.44;5055371;28;20055;-28
2024/01/31 01:35:46;;;;;;;6.45;3.60;;;;;;;12.78;47.46;98083.53;5055904;28;20021;-28
2024/01/31 01:38:12;;;;;;;6.03;3.53;;;;;;;12.82;47.49;98078.84;5055965;28;20021;-28
2024/01/31 01:40:46;;;;;;;7.95;3.65;;;;;;;12.81;47.92;98071.84;5055492;28;20021;-28
2024/01/31 01:43:19;;;;;;;6.63;3.10;;;;;;;12.82;47.69;98078.84;5056147;28;20021;-28
2024/01/31 01:45:45;;;;;;;6.25;3.40;;;;;;;12.70;48.58;98073.88;5055349;28;20380;-28
2024/01/31 01:48:17;;;;;;;5.13;3.42;;;;;;;12.64;48.30;98073.50;5055675;28;20032;-28
2024/01/31 01:50:44;;;;;;;6.60;3.90;;;;;;;12.60;48.69;98078.22;5055585;28;20025;-27
2024/01/31 01:53:11;;;;;;;5.95;3.35;;;;;;;12.77;48.49;98079.25;5037152;28;20029;-28
2024/01/31 01:55:38;;;;;;;7.68;4.50;;;;;;;12.56;48.69;98078.25;5055835;28;20379;-28
2024/01/31 01:58:04;;;;;;;6.55;3.60;;;;;;;12.69;48.62;98080.50;5055203;28;20112;-28
2024/01/31 02:00:32;;;;;;;6.22;3.80;;;;;;;12.56;48.78;98072.03;5055097;28;20035;-30
2024/01/31 02:02:59;;;;;;;6.57;3.67;;;;;;;12.68;48.55;98078.94;5055541;28;20139;-28
2024/01/31 02:05:25;;;;;;;6.60;4.30;;;;;;;12.65;48.52;98079.72;5055070;28;20021;-29
2024/01/31 02:07:51;;;;;;;5.65;4.07;;;;;;;12.70;48.35;98077.38;5062060;28;20473;-29
2024/01/31 02:10:16;;;;;;;5.70;3.70;;;;;;;12.66;48.01;98079.34;5055002;28;20427;-28
2024/01/31 02:12:42;;;;;;;6.22;4.00;;;;;;;12.62;47.84;98069.63;5055108;28;20017;-28
2024/01/31 02:15:08;;;;;;;8.55;4.32;;;;;;;12.71;47.97;98069.97;5054640;28;20369;-28
2024/01/31 02:17:34;;;;;;;6.45;4.15;;;;;;;12.69;47.92;98075.81;5054820;28;20016;-28
2024/01/31 02:20:01;;;;;;;10.68;5.05;;;;;;;12.58;47.87;98065.00;5057431;28;20384;-28
2024/01/31 02:22:26;;;;;;;5.63;4.00;;;;;;;12.64;47.69;98067.28;5059458;28;20024;-28
2024/01/31 02:24:51;;;;;;;6.85;4.55;;;;;;;12.69;47.71;98064.94;5054102;28;20059;-28
2024/01/31 02:27:17;;;;;;;8.75;4.30;;;;;;;12.63;47.50;98052.13;5055032;28;20013;-28
2024/01/31 02:29:43;;;;;;;6.13;3.63;;;;;;;12.60;48.03;98051.00;5054442;28;20031;-29
2024/01/31 02:32:09;;;;;;;7.65;3.80;;;;;;;12.50;48.16;98063.50;5054455;28;20408;-28
2024/01/31 02:34:34;;;;;;;7.50;3.88;;;;;;;12.64;47.64;98057.19;5054487;28;20028;-28
2024/01/31 02:37:00;;;;;;;7.72;3.60;;;;;;;12.66;47.63;98048.63;5054872;28;20461;-28
2024/01/31 02:39:25;;;;;;;6.40;3.72;;;;;;;12.65;47.67;98041.63;5054592;28;20021;-30
2024/01/31 02:41:52;;;;;;;7.00;3.75;;;;;;;12.64;47.87;98049.03;5054342;28;20024;-28
2024/01/31 02:44:18;;;;;;;5.32;3.60;;;;;;;12.76;47.70;98036.88;5055084;28;20484;-28
2024/01/31 02:46:44;;;;;;;5.93;3.70;;;;;;;12.62;48.20;98034.25;5054185;28;20029;-28
2024/01/31 02:49:10;;;;;;;7.57;3.38;;;;;;;12.71;47.80;98024.47;5054359;28;20067;-28
2024/01/31 02:51:35;;;;;;;4.45;3.33;;;;;;;12.74;47.67;98020.16;5053965;28;20046;-30
2024/01/31 02:54:01;;;;;;;6.90;3.40;;;;;;;12.55;47.56;98026.94;5054479;28;20083;-28
2024/01/31 02:56:26;;;;;;;6.03;3.20;;;;;;;12.65;47.28;98020.63;5054395;28;20147;-29
2024/01/31 02:58:52;;;;;;;5.93;3.08;;;;;;;12.46;48.13;98023.91;5053731;28;20350;-28
2024/01/31 03:01:18;;;;;;;7.82;3.55;;;;;;;12.55;47.79;98011.38;5054319;28;20040;-28
2024/01/31 03:03:43;;;;;;;6.82;3.65;;;;;;;12.66;47.74;98021.41;5053760;28;20040;-27
2024/01/31 03:06:09;;;;;;;6.00;3.70;;;;;;;12.66;47.09;98021.41;5053763;28;20025;-28
2024/01/31 03:08:34;;;;;;;5.78;3.60;;;;;;;12.37;48.07;98024.31;5054083;28;20017;-28
2024/01/31 03:11:00;;;;;;;6.38;3.63;;;;;;;12.58;47.48;98012.53;5060430;28;20064;-30
2024/01/31 03:13:25;;;;;;;7.70;4.13;;;;;;;12.51;47.59;98018.00;5060890;28;20032;-29
2024/01/31 03:15:50;;;;;;;6.20;3.90;;;;;;;12.58;47.56;98021.47;5053778;28;20071;-28
2024/01/31 03:18:16;;;;;;;6.93;3.78;;;;;;;12.56;48.02;98014.88;5053728;28;20032;-28
2024/01/31 03:20:41;;;;;;;7.13;3.78;;;;;;;12.54;47.48;98015.28;5053885;28;20388;-28
2024/01/31 03:23:07;;;;;;;7.15;4.63;;;;;;;12.49;48.07;98015.69;5053761;28;20025;-28
2024/01/31 03:25:32;;;;;;;8.02;3.97;;;;;;;12.51;47.63;98013.34;5059743;28;20024;-29
2024/01/31 03:27:58;;;;;;;8.18;4.40;;;;;;;12.50;47.66;98019.19;5054977;28;20115;-28
2024/01/31 03:30:23;;;;;;;7.85;4.10;;;;;;;12.48;47.63;98006.00;5053941;28;20526;-28
2024/01/31 03:32:48;;;;;;;7.10;4.70;;;;;;;12.51;47.63;98015.28;5053349;28;20112;-28
2024/01/31 03:35:14;;;;;;;7.75;4.63;;;;;;;12.53;47.50;98012.94;5052626;28;20471;-28
2024/01/31 03:37:39;;;;;;;7.80;4.22;;;;;;;12.55;47.25;98005.94;5053531;28;20420;-28
2024/01/31 03:40:06;;;;;;;6.32;3.95;;;;;;;12.40;47.27;98009.94;5053226;28;20032;-30
2024/01/31 03:42:32;;;;;;;8.80;5.10;;;;;;;12.37;47.28;98008.00;5053820;28;20024;-28
2024/01/31 03:44:57;;;;;;;9.50;5.05;;;;;;;12.49;47.07;98012.97;5053906;28;20031;-28
2024/01/31 03:47:23;;;;;;;9.05;4.75;;;;;;;12.49;46.75;98009.47;5053236;28;20016;-28
2024/01/31 03:49:51;;;;;;;6.40;4.18;;;;;;;12.39;46.82;98007.59;5053358;28;20432;-29
2024/01/31 03:52:17;;;;;;;6.68;3.92;;;;;;;12.58;46.84;98007.84;5053449;28;20040;-29
2024/01/31 03:54:43;;;;;;;8.20;4.88;;;;;;;12.34;47.62;98002.59;5053266;28;20021;-28
2024/01/31 03:57:08;;;;;;;6.80;4.03;;;;;;;12.38;47.09;98001.38;5053184;28;20052;-28
2024/01/31 03:59:34;;;;;;;7.97;4.13;;;;;;;12.65;46.85;98001.56;5053401;28;20064;-28
2024/01/31 04:01:59;;;;;;;8.02;4.55;;;;;;;12.55;46.84;98000.50;5053424;28;20052;-28
2024/01/31 04:04:25;;;;;;;6.38;4.55;;;;;;;12.43;47.25;98000.19;5053097;28;20021;-28
2024/01/31 04:06:51;;;;;;;8.07;4.18;;;;;;;12.55;46.96;98007.88;5053182;28;20468;-28
2024/01/31 04:09:16;;;;;;;5.88;4.30;;;;;;;12.51;47.19;98010.63;5053034;28;20029;-28
2024/01/31 04:11:42;;;;;;;7.22;4.40;;;;;;;12.66;46.48;98007.78;5053185;28;20021;-28
2024/01/31 04:14:07;;;;;;;16.45;9.20;;;;;;;12.58;46.65;98020.69;5053608;28;20384;-28
2024/01/31 04:16:33;;;;;;;19.40;10.82;;;;;;;12.49;46.62;98012.97;5052973;28;20067;-28
2024/01/31 04:18:58;;;;;;;12.20;7.85;;;;;;;12.49;46.85;98012.19;5060380;28;20047;-28
2024/01/31 04:21:24;;;;;;;14.15;6.25;;;;;;;12.25;47.28;98011.19;5052762;28;20017;-30
2024/01/31 04:23:50;;;;;;;8.65;5.10;;;;;;;12.37;46.86;98010.72;5053009;28;20080;-28
2024/01/31 04:26:15;;;;;;;9.15;5.10;;;;;;;12.56;46.61;98007.47;5052759;28;20021;-28
2024/01/31 04:28:41;;;;;;;9.75;5.25;;;;;;;12.48;46.76;98007.94;5052987;28;20025;-28
2024/01/31 04:31:14;;;;;;;7.78;4.50;;;;;;;12.48;46.95;98005.22;5053105;28;20031;-28
2024/01/31 04:33:40;;;;;;;6.78;4.57;;;;;;;12.37;46.96;98005.28;5053216;28;20112;-29
2024/01/31 04:36:05;;;;;;;6.75;4.35;;;;;;;12.43;46.61;98014.56;5052945;28;20452;-28
2024/01/31 04:38:31;;;;;;;13.38;5.10;;;;;;;12.56;46.39;97999.31;5052736;28;20104;-28
2024/01/31 04:40:56;;;;;;;9.10;4.57;;;;;;;12.63;45.99;98003.91;5052699;28;20475;-28
2024/01/31 04:43:22;;;;;;;9.07;5.30;;;;;;;12.64;45.71;98001.97;5055067;28;20104;-28
2024/01/31 04:45:47;;;;;;;12.15;5.40;;;;;;;12.40;45.87;98004.47;5057767;28;20025;-29
2024/01/31 04:48:13;;;;;;;8.93;5.28;;;;;;;12.44;45.75;98002.53;5055900;28;20033;-28
2024/01/31 04:50:38;;;;;;;14.13;5.63;;;;;;;12.41;45.72;97999.81;5056426;28;20029;-28
2024/01/31 04:53:04;;;;;;;9.82;4.90;;;;;;;12.47;45.62;97995.50;5056275;28;20025;-28
2024/01/31 04:55:30;;;;;;;14.93;6.57;;;;;;;12.47;45.85;98009.91;5056271;28;20027;-28
2024/01/31 04:57:55;;;;;;;12.30;6.53;;;;;;;12.43;45.90;98008.34;5056123;28;20110;-28
2024/01/31 05:00:23;;;;;;;9.07;5.55;;;;;;;12.36;45.73;98009.19;5056595;28;20399;-29
2024/01/31 05:02:50;;;;;;;8.77;4.93;;;;;;;12.55;45.59;98005.16;5056532;28;20139;-28
2024/01/31 05:05:15;;;;;;;11.30;5.97;;;;;;;12.54;45.56;98004.38;5056220;28;20021;-28
2024/01/31 05:07:44;;;;;;;8.75;5.60;;;;;;;12.39;45.94;98008.38;5056482;28;20484;-28
2024/01/31 05:10:09;;;;;;;9.23;5.57;;;;;;;12.45;45.77;98012.22;5056132;28;20099;-28
2024/01/31 05:12:35;;;;;;;9.82;5.45;;;;;;;12.40;45.93;98012.66;5056500;28;20114;-30
2024/01/31 05:15:00;;;;;;;13.15;5.32;;;;;;;12.29;45.96;98031.00;5056044;28;20424;-28
2024/01/31 05:17:26;;;;;;;9.52;5.15;;;;;;;12.38;45.73;98020.44;5056093;28;20025;-28
2024/01/31 05:19:51;;;;;;;12.25;5.65;;;;;;;12.33;45.88;98026.31;5055949;28;20127;-29
2024/01/31 05:22:17;;;;;;;11.30;5.28;;;;;;;12.51;45.66;98034.34;5056097;28;20467;-28
2024/01/31 05:24:43;;;;;;;8.82;5.10;;;;;;;12.58;45.65;98024.19;5055659;28;20017;-29
2024/01/31 05:27:10;;;;;;;8.85;5.30;;;;;;;12.43;46.19;98030.13;5055956;28;20416;-29
2024/01/31 05:29:35;;;;;;;9.80;5.88;;;;;;;12.44;46.04;98026.25;5052448;28;20351;-28
2024/01/31 05:32:00;;;;;;;12.52;6.10;;;;;;;12.40;46.00;98028.97;5056020;28;20079;-28
2024/01/31 05:34:27;;;;;;;11.80;6.82;;;;;;;12.48;45.81;98027.78;5055721;28;20021;-28
2024/01/31 05:36:53;;;;;;;11.32;5.13;;;;;;;12.46;45.30;98027.38;5055716;28;20031;-28
2024/01/31 05:39:18;;;;;;;9.43;5.63;;;;;;;12.52;45.29;98023.06;5055521;28;20017;-28
2024/01/31 05:41:44;;;;;;;10.57;5.22;;;;;;;12.28;46.44;98026.72;5055502;28;20468;-28
2024/01/31 05:44:10;;;;;;;10.20;5.88;;;;;;;12.24;46.16;98025.97;5055974;28;20075;-28
2024/01/31 05:46:36;;;;;;;7.95;5.05;;;;;;;12.33;46.01;98037.19;5055234;28;20028;-28
2024/01/31 05:49:02;;;;;;;9.02;5.25;;;;;;;12.36;46.11;98030.97;5062055;28;20362;-28
2024/01/31 05:51:31;;;;;;;8.55;4.80;;;;;;;12.35;46.01;98028.63;5055796;28;20380;-28
2024/01/31 05:53:56;;;;;;;7.22;4.93;;;;;;;12.29;46.24;98030.22;5055043;28;20068;-28
2024/01/31 05:56:22;;;;;;;7.72;4.72;;;;;;;12.37;46.06;98034.44;5054984;28;20051;-28
2024/01/31 05:58:48;;;;;;;7.63;4.68;;;;;;;12.33;46.33;98044.59;5054410;28;20020;-28
2024/01/31 06:01:13;;;;;;;9.02;5.35;;;;;;;12.21;46.33;98040.38;5054979;28;20060;-29
2024/01/31 06:03:39;;;;;;;8.38;4.93;;;;;;;12.37;45.92;98042.59;5055052;28;20049;-28
2024/01/31 06:06:06;;;;;;;10.02;5.50;;;;;;;12.30;46.23;98037.22;5055187;28;20025;-28
2024/01/31 06:08:35;;;;;;;10.13;4.53;;;;;;;12.39;46.11;98030.16;5055150;28;20444;-28
2024/01/31 06:11:04;;;;;;;8.27;4.78;;;;;;;12.31;46.52;98039.53;5055074;28;20032;-28
2024/01/31 06:13:36;;;;;;;6.15;3.67;;;;;;;12.39;46.58;98038.31;5054778;28;20017;-28
2024/01/31 06:16:04;;;;;;;5.45;3.53;;;;;;;12.47;46.02;98048.00;5055009;28;20013;-28
2024/01/31 06:18:34;;;;;;;6.25;4.00;;;;;;;12.42;46.05;98042.97;5054766;28;20040;-28
2024/01/31 06:21:00;;;;;;;7.32;3.97;;;;;;;12.31;46.57;98049.63;5054890;28;20044;-30
2024/01/31 06:23:26;;;;;;;6.18;4.00;;;;;;;12.37;46.30;98046.09;5054873;28;20021;-29
2024/01/31 06:25:52;;;;;;;6.28;3.85;;;;;;;12.51;45.90;98048.72;5062118;28;20025;-28
2024/01/31 06:28:17;;;;;;;4.88;3.47;;;;;;;12.54;46.13;98047.94;5054471;28;20487;-28
2024/01/31 06:30:45;;;;;;;8.43;3.38;;;;;;;12.37;46.35;98043.38;5054703;28;20025;-29
2024/01/31 06:33:12;;;;;;;6.60;4.10;;;;;;;12.34;46.22;98051.56;5054433;28;20031;-28
2024/01/31 06:35:41;;;;;;;5.60;3.85;;;;;;;12.59;45.97;98054.91;5054362;28;20016;-28
2024/01/31 06:38:07;;;;;;;6.43;3.78;;;;;;;12.36;46.47;98057.41;5054589;28;20036;-28
2024/01/31 06:40:33;;;;;;;6.95;4.20;;;;;;;12.54;45.80;98058.03;5054777;28;20107;-29
2024/01/31 06:42:58;;;;;;;6.20;4.15;;;;;;;12.40;46.17;98056.19;5054234;28;20017;-28
2024/01/31 06:45:24;;;;;;;8.68;4.72;;;;;;;12.38;46.19;98061.25;5054813;28;20086;-28
2024/01/31 06:47:53;;;;;;;8.07;4.78;;;;;;;12.57;46.04;98059.97;5054287;28;20105;-28
2024/01/31 06:50:20;;;;;;;8.38;4.85;;;;;;;12.44;46.33;98064.34;5054175;28;20404;-28
2024/01/31 06:52:48;;;;;;;10.27;5.13;;;;;;;12.56;46.20;98056.47;5054280;28;20021;-29
2024/01/31 06:55:14;;;;;;;8.88;5.70;;;;;;;12.20;47.09;98052.44;5061411;28;20025;-28
2024/01/31 06:57:42;;;;;;;9.65;5.35;;;;;;;12.62;46.23;98053.31;5054205;28;20108;-28
2024/01/31 07:00:10;;;;;;;10.43;5.63;;;;;;;12.51;46.40;98048.72;5053983;28;20044;-28
2024/01/31 07:02:36;;;;;;;9.05;5.43;;;;;;;12.57;46.46;98051.81;5053668;28;20041;-28
2024/01/31 07:05:02;;;;;;;12.10;5.50;;;;;;;12.31;46.73;98058.56;5053827;28;20013;-28
2024/01/31 07:07:27;;;;;;;10.65;5.93;;;;;;;12.43;46.25;98054.63;5054134;28;20171;-28
2024/01/31 07:09:52;;;;;;;12.38;5.53;;;;;;;12.56;46.67;98056.47;5053937;28;20036;-28
2024/01/31 07:12:19;;;;;;;12.00;6.53;;;;;;;12.60;46.59;98056.44;5053678;28;20104;-29
2024/01/31 07:14:44;;;;;;;12.35;5.53;;;;;;;12.40;47.20;98061.63;5054337;28;20025;-28
2024/01/31 07:17:09;;;;;;;10.25;5.80;;;;;;;12.60;46.87;98048.28;5053810;28;20487;-28
2024/01/31 07:19:35;;;;;;;12.18;6.20;;;;;;;12.35;47.05;98053.91;5053673;28;20445;-29
2024/01/31 07:22:01;;;;;;;15.80;5.60;;;;;;;12.58;46.82;98062.28;5053976;28;20028;-28
2024/01/31 07:24:27;;;;;;;8.82;5.55;;;;;;;12.53;46.87;98068.16;5053582;28;20020;-29
2024/01/31 07:26:53;;;;;;;10.27;5.50;;;;;;;12.70;46.78;98069.22;5054428;28;20029;-29
2024/01/31 07:29:19;;;;;;;11.43;5.82;;;;;;;12.76;46.34;98064.09;5054035;28;20496;-29
2024/01/31 07:31:44;;;;;;;10.90;5.88;;;;;;;12.76;46.41;98070.31;5053671;28;20516;-29
2024/01/31 07:34:10;;;;;;;15.38;6.88;;;;;;;12.63;46.52;98065.75;5053461;28;20033;-28
2024/01/31 07:36:35;;;;;;;17.00;7.60;;;;;;;12.76;45.80;98069.53;5053639;28;20025;-28
2024/01/31 07:39:01;;;;;;;12.80;6.90;;;;;;;12.62;46.75;98075.09;5053538;28;20017;-28
2024/01/31 07:41:27;;;;;;;14.25;6.82;;;;;;;12.84;46.23;98071.81;5053346;28;20025;-28
2024/01/31 07:43:52;;;;;;;12.40;6.22;;;;;;;12.77;46.20;98065.66;5053761;28;20070;-29
2024/01/31 07:46:18;;;;;;;12.70;6.38;;;;;;;12.78;46.22;98072.63;5053442;28;20032;-28
2024/01/31 07:48:44;;;;;;;18.80;9.65;;;;;;;12.79;46.52;98071.47;5053418;28;20025;-28
2024/01/31 07:51:09;;;;;;;17.77;10.43;;;;;;;12.86;46.94;98074.13;5035563;28;20029;-28
2024/01/31 07:53:37;;;;;;;18.83;10.57;;;;;;;12.98;46.74;98065.50;5061139;28;20024;-28
2024/01/31 07:56:03;;;;;;;15.70;8.32;;;;;;;12.84;46.99;98073.78;5053528;28;20050;-28
2024/01/31 07:58:30;;;;;;;15.57;8.02;;;;;;;12.74;47.32;98072.66;5053540;28;20025;-28
2024/01/31 08:00:55;;;;;;;12.52;7.10;;;;;;;12.72;47.77;98068.81;5053101;28;20028;-28
2024/01/31 08:03:21;;;;;;;11.20;6.78;;;;;;;12.95;47.43;98069.00;5053237;28;20119;-28
2024/01/31 08:05:46;;;;;;;10.82;6.18;;;;;;;12.95;47.24;98079.91;5052985;28;20017;-30
2024/01/31 08:08:12;;;;;;;12.82;6.43;;;;;;;12.91;47.37;98079.16;5052978;28;20025;-28
2024/01/31 08:10:38;;;;;;;10.45;6.47;;;;;;;12.98;47.10;98079.09;5053243;28;20504;-28
2024/01/31 08:13:04;;;;;;;15.40;7.35;;;;;;;12.89;46.61;98082.28;5059971;28;20021;-28
2024/01/31 08:15:31;;;;;;;13.05;7.20;;;;;;;12.91;46.60;98074.47;5053639;28;20064;-28
2024/01/31 08:17:57;;;;;;;13.73;7.30;;;;;;;12.83;46.46;98072.22;5053291;28;20086;-28
2024/01/31 08:20:22;;;;;;;13.20;7.25;;;;;;;12.76;46.93;98075.75;5053060;28;20021;-28
2024/01/31 08:22:48;;;;;;;14.05;7.00;;;;;;;12.75;46.59;98078.88;5055547;28;20029;-28
2024/01/31 08:25:13;;;;;;;12.93;7.28;;;;;;;12.75;46.99;98071.50;5057567;28;20022;-27
2024/01/31 08:27:39;;;;;;;12.20;7.78;;;;;;;12.86;47.31;98076.84;5057227;28;20032;-28
2024/01/31 08:30:05;;;;;;;15.68;8.65;;;;;;;12.82;47.51;98082.34;5056967;28;20021;-28
2024/01/31 08:32:34;;;;;;;18.00;10.00;;;;;;;12.82;47.48;98076.91;5057139;28;20017;-27
2024/01/31 08:35:01;;;;;;;28.05;12.85;;;;;;;12.89;46.79;98068.66;5056677;28;20016;-28
2024/01/31 08:37:26;;;;;;;21.52;11.02;;;;;;;13.07;46.96;98073.19;5056790;28;20367;-27
2024/01/31 08:39:52;;;;;;;17.48;8.70;;;;;;;12.97;47.73;98083.00;5056555;28;20036;-27
2024/01/31 08:42:17;;;;;;;13.77;7.43;;;;;;;12.88;47.91;98078.00;5056573;28;20051;-28
2024/01/31 08:44:43;;;;;;;10.10;6.70;;;;;;;12.90;48.34;98083.81;5056834;28;20066;-27
2024/01/31 08:47:08;;;;;;;18.20;8.05;;;;;;;12.85;47.62;98078.03;5056728;28;20103;-28
2024/01/31 08:49:34;;;;;;;17.85;7.75;;;;;;;13.04;46.53;98087.59;5056651;28;20163;-27
2024/01/31 08:51:59;;;;;;;16.60;8.88;;;;;;;12.93;46.79;98084.97;5056761;28;20412;-27
2024/01/31 08:54:25;;;;;;;17.83;8.90;;;;;;;13.01;46.41;98083.72;5056521;28;20372;-27
2024/01/31 08:56:50;;;;;;;13.07;7.40;;;;;;;13.12;46.41;98083.63;5056505;28;20493;-28
2024/01/31 08:59:17;;;;;;;16.48;7.63;;;;;;;13.02;46.24;98079.84;5055894;28;20025;-28
2024/01/31 09:01:46;;;;;;;16.30;7.82;;;;;;;13.15;46.43;98083.66;5063721;28;20119;-27
2024/01/31 09:04:13;;;;;;;14.00;6.60;;;;;;;13.13;46.37;98088.69;5056555;28;20103;-27
2024/01/31 09:06:41;;;;;;;11.77;5.90;;;;;;;12.93;46.65;98079.53;5056112;28;20061;-28
2024/01/31 09:09:07;;;;;;;10.73;5.47;;;;;;;13.06;46.60;98071.63;5056043;28;20025;-28
2024/01/31 09:11:32;;;;;;;12.65;6.60;;;;;;;13.22;46.37;98078.16;5056137;28;20453;-28
2024/01/31 09:13:58;;;;;;;9.45;5.75;;;;;;;13.15;46.03;98080.91;5055952;28;20027;-28
2024/01/31 09:16:23;;;;;;;12.68;5.47;;;;;;;13.06;45.96;98082.53;5055958;28;20104;-29
2024/01/31 09:18:49;;;;;;;9.57;5.00;;;;;;;13.16;45.52;98079.75;5062989;28;20067;-28
2024/01/31 09:21:26;;;;;;;8.05;5.13;;;;;;;13.05;45.12;98084.47;5063477;28;20025;-28
2024/01/31 09:23:52;;;;;;;15.45;5.05;;;;;;;13.14;45.85;98084.81;5055848;28;20612;-27
2024/01/31 09:26:17;;;;;;;9.45;5.15;;;;;;;13.02;47.46;98088.00;5056455;28;20031;-28
2024/01/31 09:28:43;;;;;;;12.35;5.57;;;;;;;13.47;46.81;98085.31;5055702;28;20468;-28
2024/01/31 09:31:08;;;;;;;9.75;5.60;;;;;;;13.57;46.90;98087.91;5055756;28;20028;-28
2024/01/31 09:33:33;;;;;;;9.10;5.40;;;;;;;13.56;47.94;98083.63;5056115;28;20104;-28
2024/01/31 09:35:59;;;;;;;8.30;5.82;;;;;;;13.37;48.78;98076.03;5055890;28;20048;-28
2024/01/31 09:38:26;;;;;;;14.15;6.90;;;;;;;13.66;48.53;98084.69;5055575;28;20032;-28
2024/01/31 09:40:52;;;;;;;10.35;6.90;;;;;;;13.70;48.52;98087.41;5055457;28;20107;-28
2024/01/31 09:43:18;;;;;;;12.90;6.53;;;;;;;13.41;49.88;98086.91;5055364;28;20063;-28
2024/01/31 09:45:44;;;;;;;8.15;6.18;;;;;;;13.84;48.72;98090.75;5055360;28;20115;-29
2024/01/31 09:48:13;;;;;;;15.00;7.95;;;;;;;13.91;48.27;98081.69;5055272;28;20025;-28
2024/01/31 09:50:39;;;;;;;11.10;7.07;;;;;;;13.75;48.68;98082.25;5055772;28;20036;-28
2024/01/31 09:53:06;;;;;;;11.07;6.72;;;;;;;14.03;47.86;98084.66;5055003;28;20028;-28
2024/01/31 09:55:34;;;;;;;11.35;7.20;;;;;;;14.05;47.71;98078.00;5055441;28;20051;-28
2024/01/31 09:58:01;;;;;;;12.63;7.15;;;;;;;14.18;47.50;98081.75;5051730;28;20412;-28
2024/01/31 10:00:27;;;;;;;13.02;7.10;;;;;;;14.40;47.29;98083.03;5055202;28;20033;-28
2024/01/31 10:02:52;;;;;;;14.10;7.85;;;;;;;14.30;47.05;98073.78;5055461;28;20075;-28
2024/01/31 10:05:18;;;;;;;12.90;6.90;;;;;;;14.78;45.93;98071.94;5054841;28;20429;-28
2024/01/31 10:07:43;;;;;;;10.70;6.50;;;;;;;14.66;46.23;98068.59;5055398;28;20064;-28
2024/01/31 10:10:09;;;;;;;10.00;6.57;;;;;;;14.67;45.54;98075.63;5055041;28;20354;-28
2024/01/31 10:12:36;;;;;;;10.77;6.32;;;;;;;14.68;45.43;98071.69;5054928;28;20116;-28
2024/01/31 10:15:02;;;;;;;11.18;6.25;;;;;;;14.59;45.60;98071.44;5054853;28;20036;-28
2024/01/31 10:17:28;;;;;;;10.80;6.38;;;;;;;14.44;45.59;98069.34;5054913;28;20033;-28
2024/01/31 10:19:53;;;;;;;10.75;6.25;;;;;;;14.42;44.85;98066.25;5054946;28;20500;-28
2024/01/31 10:22:18;;;;;;;13.57;6.72;;;;;;;14.53;44.77;98066.84;5055128;28;20029;-31
2024/01/31 10:24:51;;;;;;;9.90;6.25;;;;;;;14.22;45.35;98058.66;5057380;28;20021;-28
2024/01/31 10:27:20;;;;;;;8.50;5.47;;;;;;;14.35;45.82;98058.88;5054619;28;20071;-29
2024/01/31 10:29:45;;;;;;;10.18;5.97;;;;;;;14.31;44.92;98052.72;5054499;28;20496;-28
2024/01/31 10:32:15;;;;;;;8.32;5.53;;;;;;;14.27;44.67;98055.50;5054736;28;20029;-27
2024/01/31 10:34:42;;;;;;;9.73;5.53;;;;;;;14.09;45.68;98052.25;5054452;28;20021;-28
2024/01/31 10:37:09;;;;;;;6.07;4.60;;;;;;;14.23;45.14;98049.31;5054801;28;20025;-28
2024/01/31 10:39:36;;;;;;;8.35;5.97;;;;;;;13.98;45.24;98046.91;5054828;28;20025;-28
2024/01/31 10:42:03;;;;;;;7.72;5.20;;;;;;;13.92;44.80;98040.38;5054707;28;20112;-28
2024/01/31 10:44:28;;;;;;;9.95;5.25;;;;;;;13.97;43.85;98034.44;5054152;28;20472;-28
2024/01/31 10:46:54;;;;;;;8.23;5.22;;;;;;;13.95;44.87;98031.38;5050767;28;20039;-28
2024/01/31 10:49:19;;;;;;;9.25;5.55;;;;;;;14.09;45.26;98026.91;5054159;28;20103;-28
2024/01/31 10:51:50;;;;;;;13.85;7.60;;;;;;;13.74;45.62;98033.56;5054413;28;20113;-28
2024/01/31 10:54:24;;;;;;;12.27;8.43;;;;;;;13.91;44.98;98030.63;5054400;28;20127;-28
2024/01/31 10:56:51;;;;;;;12.27;7.57;;;;;;;13.78;45.86;98024.19;5054073;28;20021;-28
2024/01/31 10:59:16;;;;;;;14.85;7.90;;;;;;;13.58;45.96;98031.44;5053934;28;20031;-28
2024/01/31 11:01:58;;;;;;;16.50;10.70;;;;;;;13.74;45.79;98031.63;5054254;28;20025;-28
2024/01/31 11:04:24;;;;;;;15.00;9.43;;;;;;;13.82;45.12;98018.69;5053965;28;20029;-28
2024/01/31 11:06:52;;;;;;;13.65;9.23;;;;;;;14.03;45.19;98030.09;5054153;28;20476;-28
2024/01/31 11:09:28;;;;;;;16.90;9.95;;;;;;;13.98;45.13;98022.34;5054068;28;20027;-28
2024/01/31 11:12:20;;;;;;;15.13;9.57;;;;;;;13.79;45.11;98014.06;5061672;28;20068;-28
2024/01/31 11:14:47;;;;;;;13.70;8.32;;;;;;;13.92;44.87;98013.09;5031967;28;20033;-28
2024/01/31 11:17:19;;;;;;;12.82;8.52;;;;;;;13.74;45.25;98011.75;5053868;28;20032;-28
2024/01/31 11:20:00;;;;;;;14.13;8.27;;;;;;;13.76;45.25;98009.41;5053747;28;20017;-28
2024/01/31 11:22:26;;;;;;;14.77;7.35;;;;;;;13.92;45.49;98012.31;5053698;28;20094;-28
2024/01/31 11:24:55;;;;;;;14.32;7.75;;;;;;;13.77;45.67;98006.28;5061415;28;20112;-28